Monte Grande, Argentina
Current Conditions -  °F | °C
As of 4:00 AM on Saturday 29 Nov 2014 (Local Time) from SAEZ Reporting Station
Clear Clear  
Wind Chill: 72°   Ceiling: Unl
Heat Index: 72°   Visibility: 6mi
Dew Point: 54°   Wind: 14mph
Humidity: 53%   Direction: 50°NE
Pressure: 29.8"   Gusts: NA
Location:  34.83°S, 58.47°W
Report Text: SAEZ 290700Z 05012KT CAVOK 22/12 Q1009
Loading
Personal Weather Stations






























Interactive Weather Map New forecast layout! Learn more

10-Day Weather Forecast

Advertisements
Track Severe Weather on mobile